Time;durP1;ratioP1;P1;durP2;ratioP2;P2;SDS_P1;SDS_P2;PMS_P1;PMS_P2;Temp;Humidity;BMP_temperature;BMP_pressure;BME280_temperature;BME280_humidity;BME280_pressure;Samples;Min_cycle;Max_cycle;Signal;HPM_P1;HPM_P2
2022/05/08 00:01:39;;;;;;;7.50;6.80;;;;;;;;;;5047616;28;20205;-37
2022/05/08 00:04:08;;;;;;;7.50;6.70;;;;;;;;;;5049965;28;20210;-37
2022/05/08 00:06:35;;;;;;;7.60;6.80;;;;;;;;;;5046777;28;20222;-37
2022/05/08 00:09:02;;;;;;;6.73;6.13;;;;;;;;;;5050607;28;20209;-39
2022/05/08 00:11:29;;;;;;;7.37;6.60;;;;;;;;;;5036237;28;20202;-32
2022/05/08 00:13:56;;;;;;;7.30;6.50;;;;;;;;;;5044539;28;20210;-35
2022/05/08 00:16:23;;;;;;;7.47;6.63;;;;;;;;;;5038111;28;20228;-36
2022/05/08 00:18:50;;;;;;;7.40;6.70;;;;;;;;;;5030926;28;20210;-36
2022/05/08 00:21:19;;;;;;;7.37;6.57;;;;;;;;;;5042007;28;20281;-37
2022/05/08 00:23:46;;;;;;;7.70;6.90;;;;;;;;;;5039869;28;20206;-37
2022/05/08 00:26:14;;;;;;;9.03;6.67;;;;;;;;;;5050341;28;20226;-33
2022/05/08 00:28:41;;;;;;;7.57;6.33;;;;;;;;;;5052061;28;20210;-37
2022/05/08 00:31:10;;;;;;;7.53;6.73;;;;;;;;;;5047207;28;20664;-33
2022/05/08 00:33:37;;;;;;;7.07;6.37;;;;;;;;;;5052630;28;20228;-35
2022/05/08 00:36:04;;;;;;;6.67;6.07;;;;;;;;;;5050558;28;20234;-35
2022/05/08 00:38:32;;;;;;;7.27;5.97;;;;;;;;;;5043646;28;20209;-36
2022/05/08 00:41:00;;;;;;;10.07;6.77;;;;;;;;;;5035465;28;20210;-35
2022/05/08 00:43:28;;;;;;;7.67;6.87;;;;;;;;;;5046674;28;20209;-33
2022/05/08 00:45:55;;;;;;;6.60;5.97;;;;;;;;;;5045118;28;20296;-32
2022/05/08 00:48:22;;;;;;;6.80;6.20;;;;;;;;;;5053841;28;20206;-37
2022/05/08 00:50:50;;;;;;;8.17;7.07;;;;;;;;;;5050359;28;20206;-34
2022/05/08 00:53:17;;;;;;;7.03;6.33;;;;;;;;;;5053172;28;20217;-36
2022/05/08 00:55:46;;;;;;;7.40;6.70;;;;;;;;;;5050893;28;20688;-35
2022/05/08 00:58:13;;;;;;;7.87;7.10;;;;;;;;;;5047389;28;20214;-39
2022/05/08 01:00:40;;;;;;;7.53;6.83;;;;;;;;;;5044109;28;20203;-39
2022/05/08 01:03:07;;;;;;;8.43;7.20;;;;;;;;;;5049227;28;20213;-37
2022/05/08 01:05:35;;;;;;;9.37;6.47;;;;;;;;;;5043755;28;20215;-34
2022/05/08 01:08:02;;;;;;;9.50;7.13;;;;;;;;;;5032442;28;20280;-37
2022/05/08 01:10:30;;;;;;;7.63;6.63;;;;;;;;;;5052433;28;20202;-39
2022/05/08 01:12:58;;;;;;;6.27;5.67;;;;;;;;;;5052866;28;20224;-39
2022/05/08 01:15:25;;;;;;;6.97;6.33;;;;;;;;;;5036630;28;20714;-36
2022/05/08 01:17:53;;;;;;;7.27;6.57;;;;;;;;;;5033201;28;20206;-32
2022/05/08 01:20:20;;;;;;;8.97;7.50;;;;;;;;;;5034531;28;20228;-39
2022/05/08 01:22:48;;;;;;;6.63;6.07;;;;;;;;;;5055999;28;20267;-36
2022/05/08 01:25:15;;;;;;;6.67;6.07;;;;;;;;;;5041516;28;20564;-37
2022/05/08 01:27:42;;;;;;;6.93;6.23;;;;;;;;;;5050620;28;20225;-40
2022/05/08 01:30:10;;;;;;;9.60;7.17;;;;;;;;;;5044654;28;20206;-37
2022/05/08 01:32:37;;;;;;;7.43;6.73;;;;;;;;;;5052628;28;20210;-32
2022/05/08 01:35:04;;;;;;;7.70;6.90;;;;;;;;;;5051564;28;20205;-38
2022/05/08 01:37:32;;;;;;;7.00;6.37;;;;;;;;;;5050842;28;20210;-35
2022/05/08 01:40:00;;;;;;;7.77;7.07;;;;;;;;;;5044307;28;20274;-37
2022/05/08 01:42:28;;;;;;;7.40;6.77;;;;;;;;;;5053282;28;20198;-37
2022/05/08 01:44:55;;;;;;;7.33;6.63;;;;;;;;;;5040779;28;20202;-39
2022/05/08 01:50:08;;;;;;;7.87;6.13;;;;;;;;;;5048102;28;20315;-35
2022/05/08 01:52:36;;;;;;;8.07;6.47;;;;;;;;;;5034871;28;20549;-37
2022/05/08 01:55:04;;;;;;;7.23;6.63;;;;;;;;;;5052228;28;20209;-37
2022/05/08 01:57:31;;;;;;;6.27;5.77;;;;;;;;;;5052881;28;20212;-36
2022/05/08 01:59:58;;;;;;;6.17;5.63;;;;;;;;;;5041728;28;20220;-35
2022/05/08 02:02:26;;;;;;;6.80;6.20;;;;;;;;;;5036336;28;20214;-37
2022/05/08 02:04:53;;;;;;;8.43;6.20;;;;;;;;;;5032215;28;20206;-35
2022/05/08 02:07:20;;;;;;;6.63;5.87;;;;;;;;;;5056034;28;20229;-36
2022/05/08 02:09:47;;;;;;;6.30;5.70;;;;;;;;;;5050244;28;20217;-35
2022/05/08 02:12:16;;;;;;;6.47;5.87;;;;;;;;;;5041007;28;20265;-35
2022/05/08 02:14:43;;;;;;;7.67;6.97;;;;;;;;;;5040739;28;20205;-31
2022/05/08 02:17:11;;;;;;;7.43;6.50;;;;;;;;;;5051812;28;20230;-38
2022/05/08 02:19:38;;;;;;;7.87;6.23;;;;;;;;;;5052611;28;20213;-37
2022/05/08 02:22:05;;;;;;;6.37;5.83;;;;;;;;;;5043603;28;20567;-39
2022/05/08 02:24:32;;;;;;;6.70;6.00;;;;;;;;;;5041868;28;20210;-39
2022/05/08 02:26:59;;;;;;;7.07;6.37;;;;;;;;;;5048492;28;20673;-39
2022/05/08 02:29:29;;;;;;;6.67;6.03;;;;;;;;;;5044222;28;20206;-40
2022/05/08 02:31:56;;;;;;;7.27;6.50;;;;;;;;;;5042706;28;20638;-34
2022/05/08 02:34:23;;;;;;;6.43;5.90;;;;;;;;;;5052017;28;20206;-38
2022/05/08 02:36:50;;;;;;;6.20;5.60;;;;;;;;;;5052742;28;20237;-36
2022/05/08 02:39:17;;;;;;;6.40;5.83;;;;;;;;;;5045137;28;20215;-33
2022/05/08 02:41:45;;;;;;;6.70;6.10;;;;;;;;;;5033955;28;20203;-37
2022/05/08 02:44:13;;;;;;;6.60;6.00;;;;;;;;;;5042527;28;20210;-39
2022/05/08 02:46:41;;;;;;;7.03;6.33;;;;;;;;;;5040781;28;20221;-39
2022/05/08 02:49:08;;;;;;;8.27;5.97;;;;;;;;;;5051300;28;20233;-35
2022/05/08 02:51:36;;;;;;;9.40;6.50;;;;;;;;;;5047844;28;20212;-35
2022/05/08 02:54:03;;;;;;;6.63;6.03;;;;;;;;;;5046491;28;20213;-37
2022/05/08 02:59:26;;;;;;;6.10;5.60;;;;;;;;;;5002060;28;20282;-35
2022/05/08 03:01:55;;;;;;;7.17;6.43;;;;;;;;;;5032494;28;20203;-35
2022/05/08 03:04:22;;;;;;;6.97;6.37;;;;;;;;;;5047140;28;20214;-36
2022/05/08 03:06:49;;;;;;;5.97;5.37;;;;;;;;;;5050336;28;20222;-40
2022/05/08 03:09:16;;;;;;;7.17;6.00;;;;;;;;;;5050799;28;20296;-36
2022/05/08 03:11:43;;;;;;;6.20;5.57;;;;;;;;;;5047547;28;20636;-40
2022/05/08 03:14:10;;;;;;;6.17;5.67;;;;;;;;;;5050709;28;20236;-35
2022/05/08 03:16:37;;;;;;;6.73;5.97;;;;;;;;;;5033234;28;20226;-40
2022/05/08 03:19:06;;;;;;;6.73;5.70;;;;;;;;;;5034040;28;20661;-39
2022/05/08 03:21:34;;;;;;;6.47;5.77;;;;;;;;;;5048232;28;20198;-37
2022/05/08 03:24:01;;;;;;;6.70;6.03;;;;;;;;;;5050312;28;20233;-30
2022/05/08 03:26:31;;;;;;;6.70;5.83;;;;;;;;;;5042656;28;20238;-39
2022/05/08 03:28:58;;;;;;;6.07;5.47;;;;;;;;;;5048410;28;20744;-35
2022/05/08 03:31:25;;;;;;;6.03;5.53;;;;;;;;;;5041040;28;20262;-39
2022/05/08 03:33:52;;;;;;;6.67;6.07;;;;;;;;;;5050690;28;20215;-34
2022/05/08 03:36:20;;;;;;;5.10;4.50;;;;;;;;;;5045244;28;20226;-35
2022/05/08 03:38:48;;;;;;;5.53;5.03;;;;;;;;;;5036555;28;20244;-37
2022/05/08 03:41:16;;;;;;;7.30;6.60;;;;;;;;;;5036217;28;20208;-37
2022/05/08 03:43:44;;;;;;;6.10;5.60;;;;;;;;;;5048041;28;20205;-36
2022/05/08 03:46:13;;;;;;;6.33;5.73;;;;;;;;;;5044873;28;20218;-33
2022/05/08 03:48:40;;;;;;;6.50;5.90;;;;;;;;;;5030877;28;20214;-38
2022/05/08 03:51:08;;;;;;;8.20;5.83;;;;;;;;;;5041555;28;20221;-32
2022/05/08 03:53:36;;;;;;;7.43;6.00;;;;;;;;;;5049390;28;20210;-40
2022/05/08 03:56:03;;;;;;;7.33;6.57;;;;;;;;;;5037087;28;20227;-36
2022/05/08 03:58:30;;;;;;;6.27;5.67;;;;;;;;;;5044486;28;20210;-39
2022/05/08 04:00:58;;;;;;;7.20;6.40;;;;;;;;;;5046465;28;20203;-37
2022/05/08 04:03:25;;;;;;;6.87;6.20;;;;;;;;;;5050484;28;20217;-42
2022/05/08 04:05:52;;;;;;;7.80;6.33;;;;;;;;;;5037476;28;20678;-36
2022/05/08 04:08:19;;;;;;;6.53;5.93;;;;;;;;;;5030820;28;20214;-36
2022/05/08 04:10:47;;;;;;;7.70;6.20;;;;;;;;;;5028655;28;20198;-40
2022/05/08 04:13:15;;;;;;;6.30;5.77;;;;;;;;;;5050244;28;20543;-35
2022/05/08 04:18:27;;;;;;;5.50;5.10;;;;;;;;;;5052299;28;20263;-37
2022/05/08 04:20:54;;;;;;;6.60;6.00;;;;;;;;;;5048851;28;20244;-31
2022/05/08 04:26:07;;;;;;;7.60;5.97;;;;;;;;;;5035307;28;20706;-32
2022/05/08 04:28:34;;;;;;;6.87;5.63;;;;;;;;;;5052866;28;20206;-35
2022/05/08 04:31:01;;;;;;;6.07;5.57;;;;;;;;;;5040276;28;20212;-35
2022/05/08 04:33:29;;;;;;;6.17;5.57;;;;;;;;;;5052334;28;20206;-33
2022/05/08 04:35:56;;;;;;;6.30;5.63;;;;;;;;;;5055325;28;20248;-41
2022/05/08 04:38:23;;;;;;;6.43;5.37;;;;;;;;;;5053713;28;20201;-35
2022/05/08 04:40:50;;;;;;;6.47;5.87;;;;;;;;;;5033539;28;20217;-30
2022/05/08 04:43:19;;;;;;;9.73;7.20;;;;;;;;;;5054181;28;20213;-31
2022/05/08 04:45:46;;;;;;;8.77;7.10;;;;;;;;;;5041141;28;20706;-39
2022/05/08 04:48:14;;;;;;;5.63;5.13;;;;;;;;;;5032215;28;20206;-40
2022/05/08 04:50:41;;;;;;;7.80;6.00;;;;;;;;;;5030203;28;20217;-35
2022/05/08 04:53:08;;;;;;;7.33;6.30;;;;;;;;;;5045136;28;20209;-35
2022/05/08 04:55:35;;;;;;;6.87;5.70;;;;;;;;;;5049123;28;20454;-41
2022/05/08 04:58:02;;;;;;;6.67;6.07;;;;;;;;;;5041875;28;20227;-33
2022/05/08 05:00:31;;;;;;;5.90;5.30;;;;;;;;;;5034506;28;20218;-36
2022/05/08 05:02:58;;;;;;;6.07;5.47;;;;;;;;;;5031931;28;20210;-34
2022/05/08 05:05:25;;;;;;;6.37;5.67;;;;;;;;;;5033209;28;20233;-37
2022/05/08 05:07:52;;;;;;;5.83;5.23;;;;;;;;;;5047835;28;20199;-35
2022/05/08 05:10:20;;;;;;;6.93;5.63;;;;;;;;;;5037907;28;20206;-36
2022/05/08 05:12:47;;;;;;;7.53;6.60;;;;;;;;;;5048921;28;20264;-33
2022/05/08 05:15:14;;;;;;;7.67;6.67;;;;;;;;;;5043186;28;20214;-36
2022/05/08 05:17:42;;;;;;;7.90;6.50;;;;;;;;;;5055156;28;20225;-32
2022/05/08 05:20:10;;;;;;;7.80;7.00;;;;;;;;;;5054799;28;20217;-38
2022/05/08 05:22:37;;;;;;;6.40;5.70;;;;;;;;;;5050090;28;20221;-34
2022/05/08 05:25:04;;;;;;;7.47;6.77;;;;;;;;;;5049321;28;20667;-35
2022/05/08 05:27:31;;;;;;;7.97;7.17;;;;;;;;;;5048815;28;20217;-37
2022/05/08 05:29:59;;;;;;;7.77;6.27;;;;;;;;;;5054390;28;20581;-36
2022/05/08 05:32:27;;;;;;;6.60;6.00;;;;;;;;;;5039444;28;20206;-34
2022/05/08 05:34:55;;;;;;;8.90;6.37;;;;;;;;;;5034776;28;20302;-31
2022/05/08 05:37:22;;;;;;;7.00;6.30;;;;;;;;;;5047271;28;20230;-34
2022/05/08 05:39:49;;;;;;;6.70;6.00;;;;;;;;;;5046324;28;20210;-39
2022/05/08 05:42:16;;;;;;;7.23;6.57;;;;;;;;;;5047922;28;20209;-36
2022/05/08 05:44:44;;;;;;;6.60;6.00;;;;;;;;;;5054043;28;20206;-35
2022/05/08 05:49:57;;;;;;;7.27;6.37;;;;;;;;;;5050042;28;20201;-35
2022/05/08 05:52:24;;;;;;;6.63;6.03;;;;;;;;;;5042915;28;20206;-29
2022/05/08 05:54:51;;;;;;;7.80;5.93;;;;;;;;;;5045302;28;20812;-36
2022/05/08 05:57:18;;;;;;;6.53;5.70;;;;;;;;;;5056755;28;20234;-35
2022/05/08 05:59:46;;;;;;;7.10;6.40;;;;;;;;;;5052707;28;20210;-35
2022/05/08 06:02:13;;;;;;;6.73;6.13;;;;;;;;;;5054694;28;20213;-32
2022/05/08 06:04:40;;;;;;;6.83;6.13;;;;;;;;;;5063308;28;20208;-37
2022/05/08 06:07:09;;;;;;;7.23;6.53;;;;;;;;;;5040974;28;20223;-37
2022/05/08 06:09:36;;;;;;;7.47;6.73;;;;;;;;;;5040506;28;20206;-31
2022/05/08 06:12:03;;;;;;;7.43;6.53;;;;;;;;;;5044956;28;20226;-33
2022/05/08 06:14:30;;;;;;;7.87;7.07;;;;;;;;;;5047613;28;20203;-30
2022/05/08 06:16:58;;;;;;;7.47;6.60;;;;;;;;;;5045735;28;20317;-37
2022/05/08 06:19:25;;;;;;;7.57;6.80;;;;;;;;;;5053790;28;20206;-36
2022/05/08 06:21:52;;;;;;;7.70;7.00;;;;;;;;;;5049582;28;20206;-32
2022/05/08 06:24:21;;;;;;;7.00;6.30;;;;;;;;;;5047995;28;20252;-30
2022/05/08 06:26:48;;;;;;;7.17;6.43;;;;;;;;;;5043107;28;20222;-41
2022/05/08 06:29:15;;;;;;;7.60;6.83;;;;;;;;;;5052685;28;20209;-39
2022/05/08 06:31:42;;;;;;;8.90;7.20;;;;;;;;;;5043697;28;20922;-36
2022/05/08 06:34:10;;;;;;;7.63;6.83;;;;;;;;;;5038333;28;20217;-34
2022/05/08 06:36:37;;;;;;;7.80;7.00;;;;;;;;;;5053116;28;20222;-31
2022/05/08 06:39:04;;;;;;;7.53;6.73;;;;;;;;;;5041072;28;20219;-37
2022/05/08 06:41:33;;;;;;;8.07;7.27;;;;;;;;;;5045768;28;20198;-36
2022/05/08 06:44:00;;;;;;;7.60;6.80;;;;;;;;;;5046636;28;20210;-33
2022/05/08 06:46:31;;;;;;;11.30;6.87;;;;;;;;;;5041181;28;20229;-39
2022/05/08 06:48:58;;;;;;;7.40;6.70;;;;;;;;;;5053138;28;20218;-37
2022/05/08 06:51:26;;;;;;;7.50;6.70;;;;;;;;;;5051287;28;20211;-34
2022/05/08 06:53:54;;;;;;;7.70;6.87;;;;;;;;;;5044896;28;20204;-35
2022/05/08 06:56:21;;;;;;;8.13;7.33;;;;;;;;;;5051602;28;20230;-30
2022/05/08 07:01:38;;;;;;;11.93;7.70;;;;;;;;;;5052526;28;20663;-36
2022/05/08 07:04:06;;;;;;;8.53;7.63;;;;;;;;;;5048202;28;20207;-33
2022/05/08 07:06:33;;;;;;;8.50;7.70;;;;;;;;;;5049902;28;20223;-36
2022/05/08 07:09:00;;;;;;;8.63;7.70;;;;;;;;;;5054848;28;20206;-38
2022/05/08 07:11:27;;;;;;;9.47;7.37;;;;;;;;;;5045835;28;20232;-36
2022/05/08 07:13:56;;;;;;;8.90;8.07;;;;;;;;;;5043045;28;20289;-38
2022/05/08 07:16:23;;;;;;;8.57;7.73;;;;;;;;;;5047763;28;20233;-38
2022/05/08 07:18:50;;;;;;;8.30;7.50;;;;;;;;;;5054470;28;20263;-36
2022/05/08 07:21:18;;;;;;;10.13;8.40;;;;;;;;;;5051496;28;20205;-38
2022/05/08 07:23:45;;;;;;;10.10;8.63;;;;;;;;;;5052241;28;20656;-36
2022/05/08 07:26:12;;;;;;;9.77;8.13;;;;;;;;;;5050018;28;20234;-33
2022/05/08 07:28:39;;;;;;;9.13;8.10;;;;;;;;;;5047996;28;20206;-36
2022/05/08 07:31:08;;;;;;;11.47;8.07;;;;;;;;;;5053188;28;20214;-34
2022/05/08 07:33:37;;;;;;;9.93;8.90;;;;;;;;;;5053321;28;20207;-35
2022/05/08 07:36:12;;;;;;;9.33;8.43;;;;;;;;;;5047471;28;20249;-34
2022/05/08 07:38:40;;;;;;;10.83;8.67;;;;;;;;;;5042968;28;20218;-36
2022/05/08 07:41:07;;;;;;;11.27;8.17;;;;;;;;;;5032891;28;20198;-38
2022/05/08 07:43:34;;;;;;;10.40;8.37;;;;;;;;;;5051249;28;20206;-39
2022/05/08 07:46:02;;;;;;;9.57;8.03;;;;;;;;;;5033024;28;20234;-35
2022/05/08 07:48:37;;;;;;;11.57;8.67;;;;;;;;;;5033244;28;20649;-37
2022/05/08 07:51:04;;;;;;;10.80;8.67;;;;;;;;;;5049158;28;20207;-37
2022/05/08 07:53:32;;;;;;;8.87;7.97;;;;;;;;;;5051364;28;20202;-35
2022/05/08 07:56:00;;;;;;;9.97;8.77;;;;;;;;;;5052215;28;20229;-36
2022/05/08 07:58:31;;;;;;;10.97;9.03;;;;;;;;;;5050015;28;20234;-40
2022/05/08 08:00:58;;;;;;;9.57;8.60;;;;;;;;;;5049276;28;20217;-34
2022/05/08 08:03:26;;;;;;;10.37;8.87;;;;;;;;;;5033032;28;20211;-32
2022/05/08 08:05:55;;;;;;;11.03;9.93;;;;;;;;;;5033749;28;20674;-30
2022/05/08 08:08:23;;;;;;;9.50;8.60;;;;;;;;;;5040191;28;20210;-35
2022/05/08 08:10:53;;;;;;;10.67;9.57;;;;;;;;;;5033907;28;20230;-35
2022/05/08 08:13:20;;;;;;;10.30;9.30;;;;;;;;;;5047634;28;20206;-34
2022/05/08 08:15:47;;;;;;;10.57;9.57;;;;;;;;;;5043478;28;20258;-35
2022/05/08 08:18:15;;;;;;;10.87;9.77;;;;;;;;;;5052507;28;20251;-34
2022/05/08 08:20:42;;;;;;;11.07;9.97;;;;;;;;;;5053901;28;20210;-31
2022/05/08 08:23:11;;;;;;;10.53;9.53;;;;;;;;;;5051675;28;20209;-35
2022/05/08 08:25:39;;;;;;;11.63;10.43;;;;;;;;;;5042894;28;20226;-36
2022/05/08 08:28:06;;;;;;;10.67;9.57;;;;;;;;;;5042919;28;20291;-36
2022/05/08 08:30:35;;;;;;;10.27;9.23;;;;;;;;;;5040763;28;20209;-35
2022/05/08 08:33:02;;;;;;;10.43;8.87;;;;;;;;;;5052440;28;20212;-35
2022/05/08 08:35:30;;;;;;;12.70;10.13;;;;;;;;;;5050072;28;20225;-31
2022/05/08 08:37:57;;;;;;;11.23;9.80;;;;;;;;;;5048349;28;20222;-35
2022/05/08 08:40:25;;;;;;;10.17;9.17;;;;;;;;;;5031994;28;20545;-38
2022/05/08 08:42:53;;;;;;;11.27;9.77;;;;;;;;;;5046099;28;20218;-33
2022/05/08 08:48:09;;;;;;;9.80;8.80;;;;;;;;;;5038246;28;20227;-37
2022/05/08 08:50:36;;;;;;;11.23;9.70;;;;;;;;;;5054484;28;20605;-32
2022/05/08 08:53:04;;;;;;;10.97;9.50;;;;;;;;;;5048714;28;20210;-32
2022/05/08 08:55:35;;;;;;;10.37;9.30;;;;;;;;;;5049005;28;20230;-33
2022/05/08 08:58:02;;;;;;;11.60;10.20;;;;;;;;;;5038749;28;20314;-36
2022/05/08 09:00:29;;;;;;;11.97;10.50;;;;;;;;;;5044725;28;20210;-39
2022/05/08 09:02:56;;;;;;;10.17;9.17;;;;;;;;;;5044921;28;20198;-32
2022/05/08 09:05:25;;;;;;;10.43;9.40;;;;;;;;;;5040533;28;20229;-38
2022/05/08 09:07:53;;;;;;;12.10;10.20;;;;;;;;;;5045324;28;20236;-33
2022/05/08 09:10:22;;;;;;;12.77;9.77;;;;;;;;;;5042915;28;20229;-36
2022/05/08 09:13:04;;;;;;;10.37;9.37;;;;;;;;;;5047464;28;20255;-36
2022/05/08 09:15:31;;;;;;;9.73;8.73;;;;;;;;;;5049648;28;20222;-31
2022/05/08 09:18:00;;;;;;;10.93;8.53;;;;;;;;;;5067169;28;20217;-35
2022/05/08 09:20:29;;;;;;;10.30;9.20;;;;;;;;;;5049792;28;20209;-35
2022/05/08 09:23:04;;;;;;;10.37;9.37;;;;;;;;;;5049869;28;20213;-36
2022/05/08 09:25:46;;;;;;;9.17;8.33;;;;;;;;;;5041408;28;20253;-41
2022/05/08 09:28:14;;;;;;;8.77;7.87;;;;;;;;;;5049417;28;20210;-38
2022/05/08 09:30:55;;;;;;;8.60;7.77;;;;;;;;;;5043410;28;20198;-37
2022/05/08 09:33:23;;;;;;;8.97;7.77;;;;;;;;;;5036391;28;20213;-38
2022/05/08 09:35:50;;;;;;;7.03;6.43;;;;;;;;;;5048770;28;20218;-33
2022/05/08 09:38:17;;;;;;;12.40;8.77;;;;;;;;;;5040638;28;20223;-35
2022/05/08 09:40:45;;;;;;;8.17;7.37;;;;;;;;;;5041635;28;20206;-32
2022/05/08 09:43:32;;;;;;;9.17;7.70;;;;;;;;;;5050551;28;20216;-34
2022/05/08 09:46:01;;;;;;;9.40;7.60;;;;;;;;;;5043489;28;20227;-31
2022/05/08 09:48:28;;;;;;;9.37;8.07;;;;;;;;;;5040000;28;20195;-38
2022/05/08 09:50:57;;;;;;;9.03;6.90;;;;;;;;;;5036539;28;20201;-37
2022/05/08 09:53:25;;;;;;;7.33;6.63;;;;;;;;;;5046547;28;20539;-39
2022/05/08 09:55:53;;;;;;;7.73;6.53;;;;;;;;;;5046727;28;20307;-33
2022/05/08 09:58:21;;;;;;;6.20;5.60;;;;;;;;;;5049139;28;20233;-38
2022/05/08 10:00:48;;;;;;;8.43;6.33;;;;;;;;;;5051799;28;20206;-35
2022/05/08 10:03:17;;;;;;;8.30;5.90;;;;;;;;;;5035978;28;20213;-35
2022/05/08 10:05:44;;;;;;;7.03;5.63;;;;;;;;;;5043983;28;20221;-32
2022/05/08 10:08:13;;;;;;;6.50;5.70;;;;;;;;;;5054082;28;20201;-35
2022/05/08 10:13:54;;;;;;;6.20;5.60;;;;;;;;;;5049505;28;20224;-37
2022/05/08 10:16:40;;;;;;;5.73;5.23;;;;;;;;;;5044396;28;20237;-31
2022/05/08 10:19:26;;;;;;;6.70;5.67;;;;;;;;;;5053937;28;20225;-31
2022/05/08 10:22:06;;;;;;;5.17;4.67;;;;;;;;;;5049449;28;20208;-35
2022/05/08 10:24:35;;;;;;;6.83;5.40;;;;;;;;;;5044863;28;20291;-37
2022/05/08 10:27:14;;;;;;;6.03;5.43;;;;;;;;;;5041066;28;20238;-36
2022/05/08 10:29:41;;;;;;;5.93;5.33;;;;;;;;;;5044569;28;20227;-36
2022/05/08 10:32:09;;;;;;;5.60;5.00;;;;;;;;;;5049383;28;20205;-32
2022/05/08 10:34:37;;;;;;;4.93;4.53;;;;;;;;;;5047370;28;20203;-34
2022/05/08 10:37:23;;;;;;;5.23;4.83;;;;;;;;;;5048826;28;20283;-35
2022/05/08 10:39:53;;;;;;;5.23;4.73;;;;;;;;;;5047381;28;20221;-34
2022/05/08 10:42:42;;;;;;;4.93;4.43;;;;;;;;;;5045817;28;20206;-34
2022/05/08 10:45:29;;;;;;;5.00;4.60;;;;;;;;;;5039252;28;20210;-36
2022/05/08 10:47:56;;;;;;;5.03;4.63;;;;;;;;;;5039146;28;20226;-33
2022/05/08 10:50:23;;;;;;;7.83;4.97;;;;;;;;;;5048759;28;20201;-34
2022/05/08 10:52:51;;;;;;;4.23;3.93;;;;;;;;;;5046380;28;20206;-30
2022/05/08 10:55:19;;;;;;;4.97;4.47;;;;;;;;;;5041110;28;20210;-33
2022/05/08 10:57:47;;;;;;;5.33;4.60;;;;;;;;;;5050297;28;20198;-34
2022/05/08 11:00:18;;;;;;;6.60;4.17;;;;;;;;;;5044622;28;20548;-38
2022/05/08 11:02:46;;;;;;;6.77;3.87;;;;;;;;;;5041137;28;20195;-37
2022/05/08 11:05:14;;;;;;;4.33;3.93;;;;;;;;;;5051409;28;20206;-36
2022/05/08 11:07:48;;;;;;;4.67;3.60;;;;;;;;;;5046967;28;20201;-32
2022/05/08 11:10:16;;;;;;;3.67;3.27;;;;;;;;;;5051066;28;20203;-32
2022/05/08 11:13:01;;;;;;;4.00;3.37;;;;;;;;;;5044654;28;20484;-34
2022/05/08 11:15:28;;;;;;;3.83;3.50;;;;;;;;;;5048450;28;20236;-38
2022/05/08 11:18:09;;;;;;;3.93;3.53;;;;;;;;;;5052310;28;20198;-36
2022/05/08 11:20:37;;;;;;;3.40;3.10;;;;;;;;;;5039008;28;20265;-36
2022/05/08 11:23:05;;;;;;;3.60;3.30;;;;;;;;;;5045612;28;20292;-33
2022/05/08 11:25:32;;;;;;;3.43;3.13;;;;;;;;;;5045456;28;20253;-33
2022/05/08 11:28:01;;;;;;;3.53;3.20;;;;;;;;;;5044130;28;20222;-31
2022/05/08 11:30:32;;;;;;;3.97;3.60;;;;;;;;;;5040619;28;20225;-32
2022/05/08 11:36:07;;;;;;;4.20;3.90;;;;;;;;;;5044386;28;20768;-36
2022/05/08 11:38:41;;;;;;;4.47;3.67;;;;;;;;;;5040773;28;20223;-37
2022/05/08 11:41:10;;;;;;;3.30;3.10;;;;;;;;;;5041604;28;20202;-30
2022/05/08 11:43:45;;;;;;;3.90;3.60;;;;;;;;;;5048592;28;20285;-32
2022/05/08 11:46:15;;;;;;;4.13;3.00;;;;;;;;;;5041038;28;20509;-37
2022/05/08 11:48:47;;;;;;;3.80;3.40;;;;;;;;;;5046988;28;20206;-39
2022/05/08 11:51:25;;;;;;;3.80;3.30;;;;;;;;;;5047927;28;20202;-37
2022/05/08 11:53:53;;;;;;;4.20;3.87;;;;;;;;;;5067657;28;20271;-34
2022/05/08 11:56:24;;;;;;;5.03;3.63;;;;;;;;;;5052374;28;20232;-34
2022/05/08 11:58:53;;;;;;;3.90;3.50;;;;;;;;;;5048094;28;20228;-32
2022/05/08 12:01:24;;;;;;;4.90;3.30;;;;;;;;;;5050116;28;20221;-35
2022/05/08 12:03:51;;;;;;;4.57;4.17;;;;;;;;;;5051734;28;20216;-39
2022/05/08 12:06:18;;;;;;;4.33;3.90;;;;;;;;;;5051404;28;20237;-31
2022/05/08 12:08:46;;;;;;;5.87;3.90;;;;;;;;;;5047030;28;20602;-36
2022/05/08 12:11:33;;;;;;;3.00;2.63;;;;;;;;;;5052160;28;20197;-38
2022/05/08 12:14:02;;;;;;;4.33;2.83;;;;;;;;;;5050049;28;20218;-34
2022/05/08 12:16:31;;;;;;;3.67;2.73;;;;;;;;;;5051575;28;20219;-32
2022/05/08 12:19:15;;;;;;;2.73;2.50;;;;;;;;;;5051966;28;20225;-33
2022/05/08 12:21:43;;;;;;;8.10;3.17;;;;;;;;;;5045919;28;20206;-38
2022/05/08 12:24:14;;;;;;;3.93;2.50;;;;;;;;;;5055911;28;20209;-31
2022/05/08 12:26:42;;;;;;;4.80;2.23;;;;;;;;;;5055567;28;20233;-40
2022/05/08 12:29:16;;;;;;;2.80;2.47;;;;;;;;;;5049960;28;20206;-38
2022/05/08 12:31:44;;;;;;;2.87;2.53;;;;;;;;;;5045757;28;20640;-35
2022/05/08 12:34:12;;;;;;;3.30;3.00;;;;;;;;;;5052847;28;20206;-35
2022/05/08 12:36:40;;;;;;;2.73;2.53;;;;;;;;;;5049825;28;20237;-35
2022/05/08 12:39:08;;;;;;;2.70;2.50;;;;;;;;;;5044367;28;20230;-37
2022/05/08 12:41:35;;;;;;;3.07;2.70;;;;;;;;;;5053144;28;20220;-38
2022/05/08 12:44:03;;;;;;;3.60;3.30;;;;;;;;;;5052467;28;20206;-38
2022/05/08 12:46:31;;;;;;;4.63;3.00;;;;;;;;;;5046976;28;20225;-38
2022/05/08 12:49:02;;;;;;;3.27;2.97;;;;;;;;;;5055279;28;20648;-33
2022/05/08 12:51:30;;;;;;;3.70;3.40;;;;;;;;;;5057816;28;20256;-36
2022/05/08 12:53:57;;;;;;;3.90;3.10;;;;;;;;;;5052410;28;20198;-35
2022/05/08 12:56:25;;;;;;;5.87;3.63;;;;;;;;;;5038263;28;20757;-36
2022/05/08 13:01:38;;;;;;;3.87;3.00;;;;;;;;;;5044747;28;20205;-36
2022/05/08 13:04:06;;;;;;;3.57;3.27;;;;;;;;;;5053916;28;20214;-34
2022/05/08 13:06:33;;;;;;;3.40;2.80;;;;;;;;;;5056297;28;20237;-32
2022/05/08 13:09:01;;;;;;;3.10;2.90;;;;;;;;;;5045378;28;20206;-37
2022/05/08 13:11:28;;;;;;;3.40;3.10;;;;;;;;;;5042813;28;20202;-40
2022/05/08 13:13:55;;;;;;;5.20;3.57;;;;;;;;;;5051199;28;20223;-33
2022/05/08 13:16:23;;;;;;;3.90;3.37;;;;;;;;;;5035776;28;20222;-34
2022/05/08 13:18:51;;;;;;;4.07;3.17;;;;;;;;;;5055259;28;20313;-32
2022/05/08 13:21:19;;;;;;;4.47;3.20;;;;;;;;;;5056552;28;20210;-34
2022/05/08 13:23:46;;;;;;;5.40;3.20;;;;;;;;;;5056255;28;20204;-33
2022/05/08 13:26:13;;;;;;;4.10;3.23;;;;;;;;;;5042988;28;20226;-34
2022/05/08 13:28:40;;;;;;;3.17;2.93;;;;;;;;;;5044297;28;20217;-39
2022/05/08 13:31:07;;;;;;;3.00;2.77;;;;;;;;;;5041106;28;20527;-36
2022/05/08 13:33:34;;;;;;;3.93;3.53;;;;;;;;;;5055946;28;20202;-36
2022/05/08 13:36:04;;;;;;;3.37;2.80;;;;;;;;;;5049617;28;20231;-35
2022/05/08 13:38:31;;;;;;;3.37;3.00;;;;;;;;;;5055542;28;20229;-37
2022/05/08 13:40:59;;;;;;;5.70;2.90;;;;;;;;;;5047978;28;20231;-39
2022/05/08 13:43:27;;;;;;;3.50;3.20;;;;;;;;;;5053643;28;20206;-37
2022/05/08 13:45:54;;;;;;;3.20;3.00;;;;;;;;;;5052850;28;20226;-36
2022/05/08 13:48:22;;;;;;;3.37;3.03;;;;;;;;;;5055720;28;20206;-33
2022/05/08 13:50:49;;;;;;;3.33;3.13;;;;;;;;;;5046083;28;20202;-37
2022/05/08 13:53:19;;;;;;;4.50;3.37;;;;;;;;;;5053890;28;20206;-31
2022/05/08 13:55:48;;;;;;;3.57;3.27;;;;;;;;;;5051198;28;20222;-35
2022/05/08 13:58:15;;;;;;;2.40;2.20;;;;;;;;;;5055244;28;20307;-35
2022/05/08 14:00:48;;;;;;;3.47;3.17;;;;;;;;;;5047577;28;20226;-35
2022/05/08 14:03:15;;;;;;;4.43;2.70;;;;;;;;;;5050768;28;20206;-37
2022/05/08 14:05:43;;;;;;;3.40;3.00;;;;;;;;;;5046516;28;20218;-32
2022/05/08 14:08:10;;;;;;;3.10;2.90;;;;;;;;;;5046773;28;20207;-35
2022/05/08 14:10:39;;;;;;;4.70;2.70;;;;;;;;;;5043566;28;20231;-40
2022/05/08 14:13:06;;;;;;;5.23;3.00;;;;;;;;;;5050220;28;20203;-37
2022/05/08 14:15:34;;;;;;;3.10;2.80;;;;;;;;;;5046444;28;20222;-36
2022/05/08 14:18:09;;;;;;;2.77;2.57;;;;;;;;;;5046087;28;20210;-33
2022/05/08 14:20:36;;;;;;;5.17;3.00;;;;;;;;;;5053256;28;20217;-38
2022/05/08 14:23:04;;;;;;;3.17;2.97;;;;;;;;;;5038230;28;20667;-36
2022/05/08 14:25:31;;;;;;;3.27;2.97;;;;;;;;;;5051376;28;20321;-29
2022/05/08 14:28:01;;;;;;;4.13;2.90;;;;;;;;;;5054766;28;20259;-32
2022/05/08 14:30:28;;;;;;;3.50;3.13;;;;;;;;;;5047156;28;20204;-32
2022/05/08 14:38:21;;;;;;;4.47;3.47;;;;;;;;;;5021345;28;20204;-32
2022/05/08 14:40:49;;;;;;;3.57;3.27;;;;;;;;;;5032211;28;20223;-38
2022/05/08 14:43:18;;;;;;;3.90;3.20;;;;;;;;;;5051193;28;20214;-35
2022/05/08 14:45:45;;;;;;;5.67;3.40;;;;;;;;;;5045096;28;20226;-34
2022/05/08 14:48:12;;;;;;;4.00;2.83;;;;;;;;;;5052806;28;20201;-32
2022/05/08 14:50:40;;;;;;;3.20;3.00;;;;;;;;;;5051475;28;20203;-36
2022/05/08 14:53:11;;;;;;;4.07;3.07;;;;;;;;;;5053141;28;20563;-35
2022/05/08 14:55:38;;;;;;;3.60;2.90;;;;;;;;;;5053107;28;20267;-31
2022/05/08 14:58:06;;;;;;;3.00;2.80;;;;;;;;;;5050316;28;20214;-33
2022/05/08 15:00:34;;;;;;;3.00;2.73;;;;;;;;;;5043889;28;20223;-38
2022/05/08 15:03:02;;;;;;;3.13;2.83;;;;;;;;;;5044101;28;20198;-31
2022/05/08 15:05:30;;;;;;;3.27;2.97;;;;;;;;;;5047110;28;20312;-38
2022/05/08 15:07:57;;;;;;;3.03;2.80;;;;;;;;;;5041578;28;20210;-32
2022/05/08 15:10:25;;;;;;;5.77;3.43;;;;;;;;;;5048842;28;20209;-39
2022/05/08 15:12:52;;;;;;;4.27;3.23;;;;;;;;;;5048263;28;20211;-30
2022/05/08 15:15:19;;;;;;;2.80;2.60;;;;;;;;;;5046842;28;20224;-38
2022/05/08 15:20:33;;;;;;;3.20;2.90;;;;;;;;;;5056581;28;20463;-36
2022/05/08 15:23:00;;;;;;;4.17;2.90;;;;;;;;;;5052668;28;20209;-36
2022/05/08 15:25:27;;;;;;;4.57;3.27;;;;;;;;;;5053211;28;20226;-31